createdAt,value
2023-01-26T00:02:19.948Z,71.11
2023-01-26T00:04:47.868Z,72.04
2023-01-26T00:07:15.748Z,72.66
2023-01-26T00:09:43.662Z,72.35
2023-01-26T00:12:11.596Z,69.78
2023-01-26T00:14:52.663Z,69.49
2023-01-26T00:17:27.999Z,66.34
2023-01-26T00:19:58.010Z,65.69
2023-01-26T00:22:27.208Z,65.21
2023-01-26T00:24:55.423Z,65.86
2023-01-26T00:27:23.277Z,65.69
2023-01-26T00:29:52.540Z,66.28
2023-01-26T00:32:20.392Z,67.28
2023-01-26T00:34:49.160Z,67.94
2023-01-26T00:37:17.001Z,67.08
2023-01-26T00:39:44.802Z,65.66
2023-01-26T00:42:13.899Z,64.55
2023-01-26T00:44:44.197Z,64.77
2023-01-26T00:47:14.870Z,63.88
2023-01-26T00:49:42.696Z,64.23
2023-01-26T00:52:11.262Z,65.20
2023-01-26T00:54:39.523Z,66.09
2023-01-26T00:57:07.748Z,65.57
2023-01-26T00:59:36.626Z,64.72
2023-01-26T01:02:04.803Z,67.29
2023-01-26T01:04:34.252Z,68.34
2023-01-26T01:07:02.105Z,67.82
2023-01-26T01:09:29.972Z,66.69
2023-01-26T01:11:57.758Z,66.50
2023-01-26T01:14:25.704Z,65.70
2023-01-26T01:16:56.254Z,66.42
2023-01-26T01:19:24.299Z,67.26
2023-01-26T01:21:53.364Z,66.47
2023-01-26T01:24:21.172Z,67.67
2023-01-26T01:26:50.243Z,67.95
2023-01-26T01:29:18.554Z,68.33
2023-01-26T01:31:46.352Z,69.05
2023-01-26T01:34:14.222Z,69.44
2023-01-26T01:36:41.903Z,68.20
2023-01-26T01:39:11.117Z,67.48
2023-01-26T01:41:38.829Z,67.52
2023-01-26T01:44:19.381Z,67.06
2023-01-26T01:46:50.865Z,66.51
2023-01-26T01:49:21.386Z,68.13
2023-01-26T01:51:54.924Z,67.32
2023-01-26T01:54:29.866Z,67.38
2023-01-26T01:57:01.628Z,68.23
2023-01-26T01:59:31.716Z,67.35
2023-01-26T02:01:59.811Z,67.24
2023-01-26T02:04:28.443Z,67.30
2023-01-26T02:07:00.074Z,67.95
2023-01-26T02:09:49.993Z,67.69
2023-01-26T02:12:21.626Z,68.19
2023-01-26T02:14:51.194Z,67.07
2023-01-26T02:17:18.916Z,67.82
2023-01-26T02:19:56.552Z,68.29
2023-01-26T02:22:36.093Z,68.75
2023-01-26T02:25:12.296Z,68.49
2023-01-26T02:27:41.468Z,70.96
2023-01-26T02:30:12.684Z,70.45
2023-01-26T02:32:40.503Z,69.23
2023-01-26T02:35:09.087Z,69.31
2023-01-26T02:37:36.837Z,69.16
2023-01-26T02:40:13.942Z,69.17
2023-01-26T02:42:44.244Z,69.23
2023-01-26T02:45:15.117Z,68.32
2023-01-26T02:47:44.983Z,67.27
2023-01-26T02:50:13.159Z,67.89
2023-01-26T02:52:43.867Z,67.35
2023-01-26T02:55:24.945Z,67.78
2023-01-26T02:57:56.156Z,68.18
2023-01-26T03:00:27.331Z,68.17
2023-01-26T03:02:57.566Z,68.92
2023-01-26T03:05:26.454Z,69.69
2023-01-26T03:07:55.546Z,70.23
2023-01-26T03:10:26.995Z,70.47
2023-01-26T03:12:56.076Z,69.71
2023-01-26T03:15:42.865Z,68.76
2023-01-26T03:18:31.107Z,70.22
2023-01-26T03:21:17.937Z,69.74
2023-01-26T03:24:13.167Z,72.06
2023-01-26T03:26:58.932Z,71.31
2023-01-26T03:29:28.928Z,72.77
2023-01-26T03:31:59.974Z,72.78
2023-01-26T03:34:29.506Z,71.87
2023-01-26T03:36:58.445Z,72.05
2023-01-26T03:39:45.459Z,71.10
2023-01-26T03:42:30.722Z,70.62
2023-01-26T03:45:17.733Z,71.04
2023-01-26T03:48:02.968Z,71.39
2023-01-26T03:50:48.728Z,72.00
2023-01-26T03:53:36.933Z,71.06
2023-01-26T03:56:19.113Z,70.71
2023-01-26T03:58:50.200Z,71.75
2023-01-26T04:01:25.988Z,72.62
2023-01-26T04:04:12.425Z,70.98
2023-01-26T04:06:59.638Z,70.99
2023-01-26T04:09:27.719Z,71.25
2023-01-26T04:11:56.438Z,73.21
2023-01-26T04:14:50.094Z,72.88
2023-01-26T04:17:41.888Z,72.28
2023-01-26T04:20:28.615Z,71.99
2023-01-26T04:22:56.871Z,70.99
2023-01-26T04:25:24.724Z,70.15
2023-01-26T04:27:53.175Z,71.21
2023-01-26T04:30:21.323Z,72.56
2023-01-26T04:32:52.509Z,72.43
2023-01-26T04:35:20.325Z,71.56
2023-01-26T04:37:49.083Z,71.47
2023-01-26T04:40:17.914Z,71.41
2023-01-26T04:42:47.026Z,70.73
2023-01-26T04:45:14.810Z,70.25
2023-01-26T04:47:44.634Z,70.53
2023-01-26T04:50:14.972Z,70.04
2023-01-26T04:52:42.912Z,69.13
2023-01-26T04:55:10.921Z,69.19
2023-01-26T04:57:40.930Z,69.97
2023-01-26T05:00:10.875Z,70.68
2023-01-26T05:02:40.281Z,71.85
2023-01-26T05:05:13.699Z,72.84
2023-01-26T05:07:43.348Z,74.12
2023-01-26T05:10:15.750Z,75.11
2023-01-26T05:13:05.308Z,74.92
2023-01-26T05:15:55.170Z,75.11
2023-01-26T05:18:41.301Z,75.17
2023-01-26T05:21:28.246Z,75.39
2023-01-26T05:23:58.290Z,74.73
2023-01-26T05:26:38.718Z,74.51
2023-01-26T05:29:11.255Z,76.02
2023-01-26T05:31:39.116Z,77.24
2023-01-26T05:34:07.593Z,78.76
2023-01-26T05:36:37.301Z,78.49
2023-01-26T05:39:06.376Z,82.09
2023-01-26T05:41:34.112Z,79.34
2023-01-26T05:44:20.224Z,76.61
2023-01-26T05:46:55.638Z,76.19
2023-01-26T05:49:23.549Z,78.13
2023-01-26T05:51:52.761Z,80.69
2023-01-26T05:54:22.118Z,81.59
2023-01-26T05:56:50.384Z,81.31
2023-01-26T05:59:18.264Z,78.59
2023-01-26T06:01:46.278Z,78.79
2023-01-26T06:04:18.696Z,79.15
2023-01-26T06:06:53.906Z,80.74
2023-01-26T06:09:27.481Z,78.85
2023-01-26T06:12:17.238Z,80.11
2023-01-26T06:14:56.918Z,81.81
2023-01-26T06:17:29.626Z,84.02
2023-01-26T06:20:00.085Z,82.10
2023-01-26T06:22:28.006Z,82.52
2023-01-26T06:24:57.080Z,80.02
2023-01-26T06:27:25.336Z,81.07
2023-01-26T06:29:54.235Z,83.83
2023-01-26T06:32:23.426Z,82.14
2023-01-26T06:34:54.922Z,80.95
2023-01-26T06:37:23.759Z,79.02
2023-01-26T06:39:53.167Z,79.47
2023-01-26T06:42:22.285Z,78.77
2023-01-26T06:44:51.776Z,81.06
2023-01-26T06:47:19.710Z,81.64
2023-01-26T06:49:47.489Z,78.56
2023-01-26T06:52:28.176Z,77.93
2023-01-26T06:55:00.725Z,78.06
2023-01-26T06:57:54.240Z,81.42
2023-01-26T07:00:45.745Z,81.18
2023-01-26T07:03:25.368Z,80.11
2023-01-26T07:05:53.230Z,77.79
2023-01-26T07:08:20.963Z,77.85
2023-01-26T07:10:50.094Z,76.21
2023-01-26T07:13:19.291Z,75.38
2023-01-26T07:15:48.975Z,76.21
2023-01-26T07:18:16.758Z,77.92
2023-01-26T07:20:44.534Z,82.52
2023-01-26T07:23:12.452Z,78.80
2023-01-26T07:25:43.953Z,75.08
2023-01-26T07:28:11.877Z,75.53
2023-01-26T07:30:41.187Z,74.25
2023-01-26T07:33:09.315Z,77.18
2023-01-26T07:35:37.088Z,77.71
2023-01-26T07:38:05.416Z,79.43
2023-01-26T07:40:34.290Z,80.14
2023-01-26T07:43:02.302Z,78.80
2023-01-26T07:45:52.351Z,81.43
2023-01-26T07:48:21.363Z,77.46
2023-01-26T07:50:49.713Z,76.40
2023-01-26T07:53:19.429Z,77.97
2023-01-26T07:55:48.704Z,78.03
2023-01-26T07:58:18.020Z,77.02
2023-01-26T08:00:47.246Z,74.48
2023-01-26T08:03:16.594Z,73.97
2023-01-26T08:05:44.540Z,74.80
2023-01-26T08:08:12.544Z,74.42
2023-01-26T08:10:40.613Z,74.02
2023-01-26T08:13:08.807Z,76.56
2023-01-26T08:15:36.720Z,78.58
2023-01-26T08:18:05.302Z,77.38
2023-01-26T08:20:36.696Z,75.54
2023-01-26T08:23:07.577Z,73.45
2023-01-26T08:25:35.479Z,71.78
2023-01-26T08:28:03.405Z,70.86
2023-01-26T08:30:31.272Z,71.61
2023-01-26T08:32:59.302Z,70.33
2023-01-26T08:35:27.151Z,72.91
2023-01-26T08:37:56.262Z,74.66
2023-01-26T08:40:24.734Z,76.94
2023-01-26T08:42:52.936Z,75.76
2023-01-26T08:45:20.765Z,74.76
2023-01-26T08:47:50.386Z,75.33
2023-01-26T08:50:18.597Z,79.43
2023-01-26T08:52:46.594Z,78.55
2023-01-26T08:55:15.807Z,77.43
2023-01-26T08:57:43.627Z,79.26
2023-01-26T09:00:13.147Z,78.05
2023-01-26T09:02:41.285Z,76.95
2023-01-26T09:05:10.343Z,76.17
2023-01-26T09:07:38.192Z,78.58
2023-01-26T09:10:07.363Z,80.09
2023-01-26T09:12:36.455Z,75.58
2023-01-26T09:15:04.932Z,75.13
2023-01-26T09:17:32.683Z,75.91
2023-01-26T09:20:00.487Z,76.57
2023-01-26T09:22:28.252Z,79.07
2023-01-26T09:24:56.070Z,76.30
2023-01-26T09:27:24.179Z,78.57
2023-01-26T09:29:53.762Z,75.74
2023-01-26T09:32:21.655Z,76.49
2023-01-26T09:34:49.501Z,76.30
2023-01-26T09:37:18.237Z,75.36
2023-01-26T09:39:46.477Z,76.02
2023-01-26T09:42:36.594Z,75.52
2023-01-26T09:45:16.609Z,77.33
2023-01-26T09:47:56.724Z,80.17
2023-01-26T09:50:28.374Z,78.62
2023-01-26T09:53:00.300Z,77.76
2023-01-26T09:55:30.245Z,82.96
2023-01-26T09:58:01.418Z,81.06
2023-01-26T10:00:35.614Z,75.46
2023-01-26T10:03:17.190Z,80.23
2023-01-26T10:05:50.990Z,77.48
2023-01-26T10:08:38.951Z,76.04
2023-01-26T10:11:15.717Z,75.90
2023-01-26T10:13:51.554Z,81.78
2023-01-26T10:16:25.378Z,78.37
2023-01-26T10:18:57.067Z,78.22
2023-01-26T10:21:27.976Z,75.28
2023-01-26T10:23:56.796Z,78.84
2023-01-26T10:26:25.156Z,77.98
2023-01-26T10:28:53.939Z,78.09
2023-01-26T10:31:26.414Z,81.88
2023-01-26T10:33:56.537Z,80.24
2023-01-26T10:36:25.211Z,80.90
2023-01-26T10:38:53.513Z,82.53
2023-01-26T10:41:25.677Z,79.92
2023-01-26T10:43:56.073Z,78.98
2023-01-26T10:46:31.500Z,75.79
2023-01-26T10:49:01.576Z,73.82
2023-01-26T10:51:32.062Z,72.34
2023-01-26T10:54:22.798Z,75.02
2023-01-26T10:56:54.498Z,74.75
2023-01-26T10:59:28.855Z,69.82
2023-01-26T11:02:01.462Z,73.03
2023-01-26T11:04:30.512Z,74.32
2023-01-26T11:07:25.253Z,75.66
2023-01-26T11:09:53.836Z,77.23
2023-01-26T11:12:25.878Z,74.19
2023-01-26T11:15:02.384Z,74.69
2023-01-26T11:17:38.038Z,77.00
2023-01-26T11:20:29.160Z,70.37
2023-01-26T11:23:05.230Z,72.23
2023-01-26T11:25:38.890Z,69.17
2023-01-26T11:28:24.207Z,71.18
2023-01-26T11:31:10.977Z,76.88
2023-01-26T11:33:52.229Z,76.31
2023-01-26T11:36:29.456Z,75.97
2023-01-26T11:39:06.775Z,76.32
2023-01-26T11:41:45.031Z,73.15
2023-01-26T11:44:25.583Z,78.42
2023-01-26T11:47:08.333Z,76.87
2023-01-26T11:50:08.039Z,73.65
2023-01-26T11:52:47.290Z,72.62
2023-01-26T11:55:24.454Z,70.97
2023-01-26T11:58:15.248Z,68.86
2023-01-26T12:00:46.745Z,68.09
2023-01-26T12:03:21.938Z,69.00
2023-01-26T12:05:55.116Z,68.88
2023-01-26T12:08:26.720Z,68.92
2023-01-26T12:11:22.365Z,70.92
2023-01-26T12:14:06.660Z,72.81
2023-01-26T12:16:46.631Z,70.51
2023-01-26T12:19:27.568Z,73.70
2023-01-26T12:22:01.936Z,75.99
2023-01-26T12:25:08.269Z,75.17
2023-01-26T12:27:36.097Z,74.92
2023-01-26T12:30:19.607Z,75.83
2023-01-26T12:32:47.776Z,74.85
2023-01-26T12:35:22.117Z,77.86
2023-01-26T12:38:16.677Z,75.42
2023-01-26T12:40:54.983Z,74.30
2023-01-26T12:43:38.873Z,78.03
2023-01-26T12:46:09.173Z,75.74
2023-01-26T12:48:42.473Z,76.09
2023-01-26T12:51:16.131Z,73.88
2023-01-26T12:53:53.049Z,74.41
2023-01-26T12:56:25.415Z,80.15
2023-01-26T12:58:56.372Z,78.60
2023-01-26T13:01:26.807Z,82.14
2023-01-26T13:03:57.734Z,78.28
2023-01-26T13:06:26.979Z,79.73
2023-01-26T13:09:06.009Z,80.66
2023-01-26T13:11:47.552Z,79.10
2023-01-26T13:14:37.382Z,84.01
2023-01-26T13:17:44.752Z,88.45
2023-01-26T13:20:24.861Z,85.94
2023-01-26T13:22:53.471Z,88.51
2023-01-26T13:25:32.432Z,86.46
2023-01-26T13:28:02.035Z,82.66
2023-01-26T13:30:46.385Z,83.92
2023-01-26T13:33:23.190Z,80.78
2023-01-26T13:35:53.451Z,81.64
2023-01-26T13:38:31.693Z,82.74
2023-01-26T13:41:01.215Z,83.82
2023-01-26T13:43:35.981Z,86.24
2023-01-26T13:46:15.367Z,88.67
2023-01-26T13:48:46.075Z,88.07
2023-01-26T13:51:17.841Z,87.18
2023-01-26T13:53:51.227Z,87.91
2023-01-26T13:56:27.581Z,85.92
2023-01-26T13:59:03.998Z,86.83
2023-01-26T14:01:32.300Z,87.06
2023-01-26T14:04:08.049Z,83.37
2023-01-26T14:06:38.470Z,83.97
2023-01-26T14:09:12.815Z,82.85
2023-01-26T14:11:42.953Z,82.57
2023-01-26T14:14:24.438Z,87.12
2023-01-26T14:16:52.492Z,88.98
2023-01-26T14:19:24.056Z,84.71
2023-01-26T14:21:54.518Z,86.91
2023-01-26T14:24:28.373Z,90.74
2023-01-26T14:26:59.775Z,91.15
2023-01-26T14:29:31.135Z,91.77
2023-01-26T14:32:01.511Z,96.00
2023-01-26T14:34:32.446Z,90.12
2023-01-26T14:37:08.719Z,87.52
2023-01-26T14:39:36.629Z,87.08
2023-01-26T14:42:07.168Z,86.61
2023-01-26T14:44:35.903Z,85.45
2023-01-26T14:47:10.522Z,91.90
2023-01-26T14:49:46.695Z,89.91
2023-01-26T14:52:25.513Z,86.79
2023-01-26T14:54:54.563Z,85.32
2023-01-26T14:57:26.286Z,90.32
2023-01-26T14:59:56.826Z,93.00
2023-01-26T15:02:26.707Z,93.10
2023-01-26T15:04:58.777Z,94.34
2023-01-26T15:07:38.824Z,89.27
2023-01-26T15:10:37.528Z,87.99
2023-01-26T15:13:20.343Z,85.99
2023-01-26T15:15:50.399Z,87.31
2023-01-26T15:18:20.565Z,93.06
2023-01-26T15:21:01.625Z,91.00
2023-01-26T15:23:32.257Z,91.42
2023-01-26T15:26:08.365Z,86.36
2023-01-26T15:28:38.654Z,85.68
2023-01-26T15:31:07.541Z,92.14
2023-01-26T15:33:40.846Z,93.13
2023-01-26T15:36:28.284Z,89.89
2023-01-26T15:39:13.810Z,88.07
2023-01-26T15:41:42.260Z,90.25
2023-01-26T15:44:16.500Z,89.94
2023-01-26T15:46:45.177Z,87.36
2023-01-26T15:49:13.649Z,88.38
2023-01-26T15:51:41.605Z,93.24
2023-01-26T15:54:11.394Z,93.93
2023-01-26T15:56:39.395Z,96.26
2023-01-26T15:59:07.678Z,91.51
2023-01-26T16:01:37.204Z,88.46
2023-01-26T16:04:05.249Z,86.65
2023-01-26T16:06:34.734Z,86.82
2023-01-26T16:09:02.658Z,88.20
2023-01-26T16:12:00.086Z,86.65
2023-01-26T16:14:28.383Z,90.96
2023-01-26T16:16:57.795Z,90.37
2023-01-26T16:19:43.932Z,90.30
2023-01-26T16:22:13.690Z,87.07
2023-01-26T16:24:42.055Z,88.58
2023-01-26T16:27:10.929Z,86.45
2023-01-26T16:29:38.910Z,88.15
2023-01-26T16:32:28.979Z,92.16
2023-01-26T16:34:57.856Z,93.76
2023-01-26T16:37:26.204Z,91.58
2023-01-26T16:39:54.340Z,88.68
2023-01-26T16:42:22.691Z,87.53
2023-01-26T16:44:50.919Z,86.55
2023-01-26T16:47:20.418Z,86.34
2023-01-26T16:49:48.556Z,86.60
2023-01-26T16:52:16.549Z,84.37
2023-01-26T16:54:45.687Z,83.16
2023-01-26T16:57:13.678Z,83.49
2023-01-26T16:59:42.089Z,82.95
2023-01-26T17:02:24.445Z,83.77
2023-01-26T17:04:52.808Z,86.17
2023-01-26T17:07:20.907Z,83.20
2023-01-26T17:09:49.096Z,84.03
2023-01-26T17:12:17.007Z,87.35
2023-01-26T17:14:45.233Z,85.73
2023-01-26T17:17:13.389Z,83.32
2023-01-26T17:19:42.916Z,86.65
2023-01-26T17:22:10.875Z,93.32
2023-01-26T17:24:39.209Z,93.25
2023-01-26T17:27:07.185Z,91.80
2023-01-26T17:29:35.251Z,89.03
2023-01-26T17:32:05.610Z,88.54
2023-01-26T17:34:33.986Z,91.18
2023-01-26T17:37:03.357Z,90.21
2023-01-26T17:39:31.310Z,88.81
2023-01-26T17:42:06.932Z,90.38
2023-01-26T17:44:35.360Z,89.52
2023-01-26T17:47:03.601Z,95.90
2023-01-26T17:49:31.784Z,98.83
2023-01-26T17:51:59.918Z,94.06
2023-01-26T17:54:29.312Z,99.02
2023-01-26T17:56:58.150Z,96.26
2023-01-26T17:59:26.656Z,95.79
2023-01-26T18:01:55.025Z,93.85
2023-01-26T18:04:23.353Z,94.88
2023-01-26T18:06:53.619Z,100.00
2023-01-26T18:09:22.599Z,99.06
2023-01-26T18:11:52.505Z,100.00
2023-01-26T18:14:20.959Z,100.00
2023-01-26T18:16:50.554Z,100.00
2023-01-26T18:19:19.439Z,100.00
2023-01-26T18:21:51.083Z,100.00
2023-01-26T18:24:20.132Z,100.00
2023-01-26T18:26:48.777Z,100.00
2023-01-26T18:29:18.969Z,100.00
2023-01-26T18:31:50.564Z,100.00
2023-01-26T18:34:21.182Z,100.00
2023-01-26T18:36:52.500Z,100.00
2023-01-26T18:39:20.948Z,100.00
2023-01-26T18:41:49.821Z,100.00
2023-01-26T18:44:19.859Z,100.00
2023-01-26T18:46:50.164Z,100.00
2023-01-26T18:49:19.436Z,100.00
2023-01-26T18:51:50.047Z,100.00
2023-01-26T18:54:20.222Z,95.72
2023-01-26T18:56:49.238Z,96.92
2023-01-26T18:59:19.580Z,100.00
2023-01-26T19:01:49.224Z,100.00
2023-01-26T19:04:18.568Z,100.00
2023-01-26T19:06:51.999Z,100.00
2023-01-26T19:09:21.720Z,100.00
2023-01-26T19:11:53.753Z,100.00
2023-01-26T19:14:26.848Z,99.69
2023-01-26T19:16:59.267Z,100.00
2023-01-26T19:19:27.455Z,99.85
2023-01-26T19:21:56.378Z,98.49
2023-01-26T19:24:24.828Z,95.34
2023-01-26T19:26:53.013Z,100.00
2023-01-26T19:29:20.915Z,100.00
2023-01-26T19:31:53.242Z,100.00
2023-01-26T19:34:21.633Z,100.00
2023-01-26T19:36:49.982Z,100.00
2023-01-26T19:39:18.200Z,100.00
2023-01-26T19:41:46.986Z,100.00
2023-01-26T19:44:15.082Z,100.00
2023-01-26T19:46:43.164Z,100.00
2023-01-26T19:49:13.490Z,100.00
2023-01-26T19:51:41.841Z,100.00
2023-01-26T19:54:10.261Z,100.00
2023-01-26T19:56:38.536Z,100.00
2023-01-26T19:59:11.127Z,100.00
2023-01-26T20:01:42.157Z,100.00
2023-01-26T20:04:14.954Z,100.00
2023-01-26T20:06:43.057Z,100.00
2023-01-26T20:09:11.186Z,100.00
2023-01-26T20:11:39.529Z,100.00
2023-01-26T20:14:11.274Z,100.00
2023-01-26T20:16:39.913Z,100.00
2023-01-26T20:19:08.114Z,100.00
2023-01-26T20:21:38.788Z,100.00
2023-01-26T20:24:08.030Z,100.00
2023-01-26T20:26:40.427Z,100.00
2023-01-26T20:29:09.552Z,100.00
2023-01-26T20:31:47.524Z,100.00
2023-01-26T20:34:33.437Z,100.00
2023-01-26T20:37:08.417Z,100.00
2023-01-26T20:39:39.791Z,100.00
2023-01-26T20:42:11.391Z,100.00
2023-01-26T20:44:43.328Z,100.00
2023-01-26T20:47:41.530Z,100.00
2023-01-26T20:50:13.878Z,100.00
2023-01-26T20:52:50.798Z,100.00
2023-01-26T20:55:19.923Z,100.00
2023-01-26T20:57:55.143Z,100.00
2023-01-26T21:00:25.143Z,100.00
2023-01-26T21:02:54.248Z,100.00
2023-01-26T21:05:23.192Z,100.00
2023-01-26T21:07:53.938Z,100.00
2023-01-26T21:10:23.291Z,100.00
2023-01-26T21:12:52.583Z,100.00
2023-01-26T21:15:21.282Z,100.00
2023-01-26T21:17:49.320Z,100.00
2023-01-26T21:20:18.047Z,100.00
2023-01-26T21:22:46.422Z,100.00
2023-01-26T21:25:17.437Z,100.00
2023-01-26T21:27:46.126Z,100.00
2023-01-26T21:30:16.444Z,100.00
2023-01-26T21:32:45.925Z,100.00
2023-01-26T21:35:16.375Z,100.00
2023-01-26T21:37:45.216Z,100.00
2023-01-26T21:40:15.351Z,100.00
2023-01-26T21:42:44.868Z,100.00
2023-01-26T21:45:31.374Z,100.00
2023-01-26T21:48:14.422Z,100.00
2023-01-26T21:51:00.856Z,100.00
2023-01-26T21:53:30.351Z,100.00
2023-01-26T21:55:59.552Z,100.00
2023-01-26T21:58:47.186Z,100.00
2023-01-26T22:01:15.856Z,100.00
2023-01-26T22:03:44.612Z,100.00
2023-01-26T22:06:13.381Z,100.00
2023-01-26T22:08:41.517Z,100.00
2023-01-26T22:11:10.395Z,100.00
2023-01-26T22:13:40.087Z,100.00
2023-01-26T22:16:09.548Z,100.00
2023-01-26T22:18:43.212Z,100.00
2023-01-26T22:21:18.470Z,100.00
2023-01-26T22:23:47.772Z,100.00
2023-01-26T22:26:19.815Z,100.00
2023-01-26T22:28:52.865Z,100.00
2023-01-26T22:31:23.565Z,100.00
2023-01-26T22:33:52.401Z,100.00
2023-01-26T22:36:21.964Z,100.00
2023-01-26T22:38:50.916Z,100.00
2023-01-26T22:41:21.105Z,100.00
2023-01-26T22:43:53.389Z,100.00
2023-01-26T22:46:23.262Z,100.00
2023-01-26T22:48:51.730Z,100.00
2023-01-26T22:51:22.496Z,100.00
2023-01-26T22:53:52.370Z,100.00
2023-01-26T22:56:21.716Z,100.00
2023-01-26T22:58:58.113Z,100.00
2023-01-26T23:01:29.230Z,100.00
2023-01-26T23:03:57.757Z,100.00
2023-01-26T23:06:25.928Z,100.00
2023-01-26T23:08:54.562Z,100.00
2023-01-26T23:11:24.613Z,100.00
2023-01-26T23:13:56.337Z,100.00
2023-01-26T23:16:25.352Z,100.00
2023-01-26T23:18:54.756Z,100.00
2023-01-26T23:21:23.195Z,100.00
2023-01-26T23:23:52.372Z,100.00
2023-01-26T23:26:21.113Z,100.00
2023-01-26T23:28:49.372Z,100.00
2023-01-26T23:31:19.567Z,100.00
2023-01-26T23:33:48.395Z,100.00
2023-01-26T23:36:17.184Z,100.00
2023-01-26T23:38:46.468Z,100.00
2023-01-26T23:41:14.546Z,100.00
2023-01-26T23:43:42.613Z,100.00
2023-01-26T23:46:11.203Z,100.00
2023-01-26T23:48:41.547Z,100.00
2023-01-26T23:51:12.519Z,100.00
2023-01-26T23:53:41.842Z,100.00
2023-01-26T23:56:11.805Z,100.00
2023-01-26T23:58:40.795Z,100.00
